Dickerson, Maryland
Current Conditions -  °F | °C
As of 3:15 PM on Thursday 30 Oct 2014 (Local Time) from KJYO Reporting Station
Overcast Overcast  
Wind Chill: 55°   Ceiling: 4900
Heat Index: 55°   Visibility: 10mi
Dew Point: 41°   Wind: 8mph
Humidity: 58%   Direction: 360°N
Pressure: 30.04"   Gusts: NA
Location:  39.22°N, 77.42°W
Report Text: KJYO 301915Z AUTO 36007KT 10SM BKN049 OVC060 13/05 A3004 RMK AO2
Loading
Personal Weather Stations






























Interactive Weather Map
Tropical Storm Tracking
New forecast layout! Learn more

10-Day Weather Forecast

Advertisements
Track Severe Weather on mobile